Warning: Javascript must be enabled to use all the features on this page!


Page Loading - Please Wait...

Click to hideNews Bulletins

Streamflow Measurements for the Nation


USGS 02292000 CALOOSAHATCHEE CA AT MOORE HAVEN FLA


Glades County, Florida
Hydrologic Unit Code 03090205
Latitude  26°50'23.39", Longitude  81°05'13.77" NAD83
Output formats
HTML table with channel data
HTML table without channel data
Tab-separated data with channel data
Tab-separated data without channel data
Graph of data
Reselect output format
Meas.
Number
  Date       Time Time
Datum
Measurement
Used?
  Who Measuring
Agency
Stream
flow
(ft3/s)
Gage
Height
(ft)
GH
Change
(ft)
Meas.
Duration
(hr)
Meas.
Rated
  Control Flow
Adjust.
Code
 
1742003-05-19 17:03EDTYesrs / ekUSGS235014.58 GoodClearNONE
1732003-05-19 16:54EDTYesrs / ekUSGS232014.58 GoodClearNONE
1722003-05-19 16:30EDTYesrs / ekUSGS256014.54 GoodClearNONE
1712003-05-19 15:48EDTYesrs / ekUSGS112014.58 PoorClearNONE
1702003-05-19 15:41EDTYesrs / ekUSGS50714.58 FairClearNONE
1692003-05-19 15:23EDTYesrs / ekUSGS46914.76 GoodClearNONE
1682003-05-19 14:14EDTYesrs / ekUSGS132014.58 GoodClearNONE
1672003-05-19 13:04EDTYesrs / ekUSGS145014.58 GoodClearNONE
1662001-06-20 14:35EDTYesed / rsUSGS-1749.17 Poor NONE
1652001-06-20 14:19EDTYesed / rsUSGS-2089.17 Poor NONE
1642001-06-20 13:47EDTYesed / rsUSGS-2699.16 Poor NONE
1632000-11-22 17:51ESTYes__USGS160011.79 Fair NONE
1622000-11-22 17:45ESTYes__USGS172011.72 Fair NONE
1612000-11-22 17:38ESTYes__USGS195011.78 Fair NONE
1602000-11-22 16:55ESTYes__USGS265011.71 Fair NONE
1592000-11-22 16:47ESTYes__USGS261011.71 Fair NONE
1582000-11-22 16:39ESTYes__USGS285011.71 Fair NONE
1572000-11-22 16:30ESTYes__USGS291011.74 Fair NONE
1552000-11-22 16:12ESTYes__USGS236011.82 Fair NONE
1542000-11-22 15:35ESTYes__USGS11612.24 Fair NONE
1532000-11-22 15:24ESTYes__USGS14312.24 Fair NONE
1522000-11-22 15:15ESTYes__USGS13312.25 Fair NONE
1512000-11-22 15:01ESTYes__USGS13712.26 Fair NONE
1502000-05-04 16:40EDTYesEDUSGS475013.45 PoorClearNONE
1492000-05-04 16:33EDTYesEDUSGS488013.46 PoorClearNONE
1482000-05-04 16:25EDTYesEDUSGS478013.45 PoorClearNONE
1472000-05-04 16:15EDTYesEDUSGS463013.46 PoorClearNONE
1462000-05-04 15:47EDTYesEdUSGS369013.56 PoorClearNONE
1452000-05-04 15:36EDTYesEDUSGS361013.54 PoorClearNONE
1442000-05-04 15:26EDTYesEDUSGS354013.51 PoorClearNONE
1432000-05-04 15:12EDTYesEDUSGS342013.48 PoorClearNONE
1422000-05-04 14:04EDTYesEDUSGS571012.98 PoorClearNONE
1412000-05-04 13:56EDTYesEDUSGS550012.98 PoorClearNONE
1402000-05-04 13:31EDTYesEDUSGS569013.00 PoorClearNONE
1392000-05-04 13:15EDTYesEDUSGS577013.02 PoorClearNONE
1382000-05-04 13:06EDTYesEDUSGS608013.05 PoorClearNONE
1372000-05-04 12:57EDTYesEDUSGS571013.05 PoorClearNONE
1362000-05-04 12:49EDTYesEDUSGS572013.09 PoorClearNONE
1331998-05-20 16:17EDTYes USGS606015.37 Unspecified NONE
1351998-05-20 15:30EDTYes USGS585015.37 Unspecified NONE
1341998-05-20 15:21EDTYes USGS573015.36 Unspecified NONE
1321998-05-20 15:12EDTYes USGS631015.35 Unspecified NONE
1311998-05-20 15:08EDTYes USGS597015.33 Unspecified NONE
1301998-05-20 14:34EDTYes USGS623015.31 Unspecified NONE
1291998-05-20 14:29EDTYes USGS600015.32 Unspecified NONE
1281998-05-20 14:22EDTYes USGS626015.32 Unspecified NONE
1271998-05-20 13:55EDTYes USGS626015.28 Unspecified NONE
1261998-05-20 13:51EDTYes USGS622015.30 Unspecified NONE
1251998-05-20 13:45EDTYes USGS629015.25 Unspecified NONE
1241998-05-20 13:39EDTYes USGS613015.28 Unspecified NONE
1231998-05-20 13:20EDTYes USGS650015.26 Unspecified NONE
1221998-05-20 13:14EDTYes USGS699015.26 Unspecified NONE
1211998-05-20 13:08EDTYes USGS672015.27 Unspecified NONE
1201998-05-20 12:53EDTYes USGS730015.28 Unspecified NONE
1191998-05-20 12:48EDTYes USGS663015.26 Unspecified NONE
1181998-05-20 12:43EDTYes USGS660015.25 Unspecified NONE
1171998-05-20 12:39EDTYes USGS685015.29 Unspecified NONE
1161998-05-20 12:34EDTYes USGS711015.33 Unspecified NONE
1151998-05-20 12:29EDTYes USGS739015.33 Unspecified NONE
1141998-02-10 12:23ESTYes USGS603017.54 Unspecified NONE
1131998-02-10 12:09ESTYes USGS591017.54 Unspecified NONE
1121998-02-10 11:57ESTYes USGS632017.55 Unspecified NONE
1111998-02-10 11:14ESTYes USGS591017.55 Unspecified NONE
1101997-08-22 13:05EDTYes USGS129014.92 Unspecified NONE
901997-08-22 13:02EDTYesxxUSGS137014.92 Unspecified NONE
1091997-08-22 13:00EDTYes USGS143014.91 Unspecified NONE
1081997-08-22 12:56EDTYes USGS131014.91 Unspecified NONE
881997-08-22 12:54EDTYesKBO/MDUSGS140014.91 Unspecified NONE
1071997-08-22 12:35EDTYes USGS139014.90 Unspecified NONE
871997-08-22 12:32EDTYeskbo/mdUSGS126014.90 Unspecified NONE
1061997-08-22 12:30EDTYes USGS116014.90 Unspecified NONE
861997-08-22 12:28EDTYeskbo/mdUSGS112014.90 Unspecified NONE
1051997-08-22 12:15EDTYes USGS125014.90 Unspecified NONE
851997-08-22 12:13EDTYeskbo/mdUSGS98814.90 Unspecified NONE
1041997-08-22 12:11EDTYes USGS104014.89 Unspecified NONE
841997-08-22 12:10EDTYeskbo/mdUSGS114014.89 Unspecified NONE
1031997-08-22 11:54EDTYes USGS88514.90 Unspecified NONE
831997-08-22 11:52EDTYeskbo/mdUSGS81014.90 Unspecified NONE
1021997-08-22 11:49EDTYes USGS89914.90 Unspecified NONE
821997-08-22 11:48EDTYeskbo/mdUSGS84514.90 Unspecified NONE
1011997-08-22 11:45EDTYes USGS85414.90 Unspecified NONE
1001997-08-22 11:17EDTYesxxUSGS71914.93 Unspecified NONE
811997-08-22 11:14EDTYeskbo/mdUSGS79914.90 Unspecified NONE
791997-08-22 11:14EDTYeskbo/mdUSGS67714.93 Unspecified NONE
991997-08-22 11:12EDTYesxxUSGS59114.93 Unspecified NONE
781997-08-22 11:10EDTYeskbo/mdUSGS55414.93 Unspecified NONE
981997-08-22 10:51EDTYesxxUSGS49314.94 Unspecified NONE
771997-08-22 10:50EDTYesKBO/MDUSGS44614.94 Unspecified NONE
761997-08-22 10:45EDTYesKBO/MDUSGS42514.94 Unspecified NONE
971997-08-22 10:40EDTYesxxUSGS55414.94 Unspecified NONE
751997-08-22 10:39EDTYesKBO/MDUSGS43014.95 Unspecified NONE
961997-08-22 10:20EDTYesxxUSGS35515.00 Unspecified NONE
741997-08-22 10:17EDTYesKBO/MDUSGS43315.00 Unspecified NONE
951997-08-22 10:12EDTYesxxUSGS34114.96 Unspecified NONE
731997-08-22 10:10EDTYeskbo/mdUSGS42814.96 Unspecified NONE
941997-08-22 09:52EDTYesxxUSGS28714.98 Unspecified NONE
721997-08-22 09:48EDTYesKBO/MDUSGS30714.98 Unspecified NONE
931997-08-22 09:46EDTYesxxUSGS34315.00 Unspecified NONE
711997-08-22 09:44EDTYesKBO/MDUSGS37215.00 Unspecified NONE
921997-08-22 09:22EDTYesxxUSGS17514.97 Unspecified NONE
701997-08-22 09:20EDTYesKBO/MDUSGS22214.97 Unspecified NONE
911997-08-22 09:16EDTYesxxUSGS21014.97 Unspecified NONE
691997-08-22 09:15EDTYesKBO/MDUSGS22114.97 Unspecified NONE
891997-08-22 -- ----YesKBO/MDUSGS13901392.00 Unspecified NONE
801997-08-22 -- ----Yeskbo/mdUSGS49714.93 Unspecified NONE
681995-11-03 08:34ESTYesKBO/RHUSGS615018.07 Unspecified NONE
671995-11-03 08:30ESTYesKBO/RHUSGS608018.07 Unspecified NONE
661995-11-03 08:25ESTYesKBO/RHUSGS643018.07 Unspecified NONE
651995-11-03 08:22ESTYeskbo/rhUSGS636018.07 Unspecified NONE
641995-11-03 08:17ESTYeskbo/rhUSGS628018.07 Unspecified NONE
631995-11-03 08:13ESTYesKBO/RHUSGS667018.07 Unspecified NONE
621995-06-07 13:25EDTYesKBO/EPUSGS456014.64 Unspecified NONE
611995-06-07 13:20EDTYesKBO/EPUSGS465014.65 Unspecified NONE
601995-06-07 13:15EDTYesKBO/EPUSGS424014.66 Unspecified NONE
591995-06-07 12:58EDTYesKBO/EPUSGS594014.64 Unspecified NONE
581995-06-07 12:53EDTYeskoUSGS563014.56 Unspecified NONE
571995-06-07 12:47EDTYeskoUSGS553014.56 Unspecified NONE
561995-06-07 12:36EDTYeskoUSGS502014.69 Unspecified NONE
551995-06-07 12:34EDTYeskoUSGS483014.64 Unspecified NONE
541995-06-07 12:26EDTYeskoUSGS508014.67 Unspecified NONE
531995-06-07 12:20EDTYeskoUSGS491014.81 Unspecified NONE
521995-06-07 11:49EDTYeskoUSGS429014.86 Unspecified NONE
511995-06-07 11:38EDTYeskoUSGS376014.89 Unspecified NONE
501995-06-07 11:28EDTYeskoUSGS406014.91 Unspecified NONE
491995-06-07 11:10EDTYeskoUSGS288015.04 Unspecified NONE
481995-06-07 11:00EDTYeskoUSGS292015.05 Unspecified NONE
471995-06-07 10:52EDTYeskoUSGS286015.04 Unspecified NONE
461995-06-07 10:29EDTYeskoUSGS185015.14 Unspecified NONE
451995-06-07 10:15EDTYeskoUSGS188015.12 Unspecified NONE
441995-06-07 09:56EDTYeskoUSGS180015.15 Unspecified NONE
431995-06-07 09:36EDTYeskoUSGS91215.19 Unspecified NONE
421995-06-07 09:20EDTYeskoUSGS102015.20 Unspecified NONE
411995-06-07 09:00EDTYeskoUSGS113015.18 Unspecified NONE
401987-04-14 -- ----YesEWUSGS51315.73 Fair NONE
391983-02-22 -- ----YesDCH/DMPUSGS794017.77 Fair NONE
381983-02-22 -- ----YesDCH/DMPUSGS691017.83 Fair NONE
371983-02-16 -- ----YesDMP/DCHUSGS696017.42 Fair NONE
361983-02-01 -- ----YesDMPUSGS436016.95 Fair NONE
351982-10-14 -- ----YesDMPUSGS319011.02 Good NONE
341982-04-06 -- ----YesDMPUSGS13510.82 Poor NONE
331982-02-01 -- ----YesDMPUSGS32810.75 Fair NONE
321981-09-03 -- ----YesFVUSGS85511.32 Good NONE
311981-08-04 -- ----YesM/VUSGS3519.91 Good NONE
301981-07-01 -- ----YesM/VUSGS36110.24 Fair NONE
291981-05-21 -- ----YesDAP/MMUSGS49910.60 Fair NONE
281981-05-05 -- ----YesDAP/MMUSGS72911.05 Good NONE
271981-05-04 -- ----YesDAP/MMUSGS13511.28 Poor NONE
261979-10-18 -- ----YesD/WUSGS467017.58 Good NONE
241974-08-01 -- ----Yes?USGS646014.03 Good NONE
41969-08-29 -- ----YesSJSUSGS2560 Fair NONE
31969-08-29 -- ----YesSASUSGS5340 Good NONE
21969-08-21 -- ----YesS/GUSGS5400 Good NONE
11969-08-20 -- ----YesS/GUSGS416013.92 Good NONE
1561900-11-22 16:21ESTYes__USGS252011.78 Fair NONE